createdAt,value
2024-02-22T00:00:45.081Z,97582.75
2024-02-22T00:03:11.921Z,97584.00
2024-02-22T00:05:38.604Z,97590.50
2024-02-22T00:08:05.613Z,97585.38
2024-02-22T00:10:46.883Z,97589.53
2024-02-22T00:13:13.732Z,97577.09
2024-02-22T00:15:40.526Z,97563.28
2024-02-22T00:18:07.592Z,97555.94
2024-02-22T00:20:34.354Z,97566.63
2024-02-22T00:23:07.284Z,97551.41
2024-02-22T00:25:34.171Z,97546.31
2024-02-22T00:28:00.947Z,97542.00
2024-02-22T00:30:27.854Z,97541.78
2024-02-22T00:32:54.690Z,97538.88
2024-02-22T00:35:21.507Z,97542.53
2024-02-22T00:37:48.596Z,97529.44
2024-02-22T00:40:15.670Z,97525.88
2024-02-22T00:42:42.914Z,97524.69
2024-02-22T00:45:11.512Z,97517.69
2024-02-22T00:47:38.563Z,97522.09
2024-02-22T00:50:05.811Z,97515.28
2024-02-22T00:52:35.384Z,97515.06
2024-02-22T00:55:09.138Z,97509.53
2024-02-22T00:57:38.976Z,97496.31
2024-02-22T01:00:07.798Z,97488.66
2024-02-22T01:02:35.098Z,97490.34
2024-02-22T01:05:01.948Z,97474.84
2024-02-22T01:07:28.889Z,97481.03
2024-02-22T01:09:55.633Z,97467.00
2024-02-22T01:12:22.414Z,97458.41
2024-02-22T01:14:49.165Z,97468.78
2024-02-22T01:17:16.223Z,97448.56
2024-02-22T01:19:43.010Z,97453.91
2024-02-22T01:22:11.470Z,97451.50
2024-02-22T01:24:38.273Z,97435.78
2024-02-22T01:27:07.600Z,97438.19
2024-02-22T01:29:37.438Z,97430.81
2024-02-22T01:32:04.479Z,97424.44
2024-02-22T01:34:33.858Z,97414.63
2024-02-22T01:37:00.654Z,97406.66
2024-02-22T01:39:27.350Z,97390.72
2024-02-22T01:41:54.111Z,97391.78
2024-02-22T01:44:24.442Z,97388.19
2024-02-22T01:46:59.934Z,97387.03
2024-02-22T01:49:30.016Z,97395.13
2024-02-22T01:52:02.032Z,97376.69
2024-02-22T01:54:28.775Z,97373.94
2024-02-22T01:56:56.717Z,97376.94
2024-02-22T01:59:24.823Z,97379.16
2024-02-22T02:01:54.411Z,97365.19
2024-02-22T02:04:21.633Z,97356.69
2024-02-22T02:06:48.559Z,97350.75
2024-02-22T02:09:16.389Z,97350.59
2024-02-22T02:11:45.749Z,97342.31
2024-02-22T02:14:12.992Z,97331.81
2024-02-22T02:16:40.017Z,97337.88
2024-02-22T02:19:09.586Z,97331.09
2024-02-22T02:21:51.854Z,97320.50
2024-02-22T02:24:33.504Z,97319.44
2024-02-22T02:27:01.208Z,97318.50
2024-02-22T02:29:27.914Z,97311.38
2024-02-22T02:31:54.756Z,97306.47
2024-02-22T02:34:21.617Z,97299.44
2024-02-22T02:36:50.489Z,97295.97
2024-02-22T02:39:17.263Z,97278.97
2024-02-22T02:41:44.094Z,97279.44
2024-02-22T02:44:11.193Z,97277.53
2024-02-22T02:46:39.481Z,97267.66
2024-02-22T02:49:06.386Z,97266.94
2024-02-22T02:51:33.648Z,97265.16
2024-02-22T02:54:03.669Z,97255.97
2024-02-22T02:56:34.271Z,97239.78
2024-02-22T02:59:03.724Z,97253.84
2024-02-22T03:01:30.667Z,97238.03
2024-02-22T03:03:57.512Z,97242.41
2024-02-22T03:06:24.308Z,97245.16
2024-02-22T03:08:51.292Z,97252.31
2024-02-22T03:11:38.269Z,97239.34
2024-02-22T03:14:11.275Z,97242.78
2024-02-22T03:16:39.059Z,97237.94
2024-02-22T03:19:06.993Z,97239.44
2024-02-22T03:21:33.944Z,97232.44
2024-02-22T03:24:00.821Z,97233.88
2024-02-22T03:26:27.665Z,97219.59
2024-02-22T03:28:54.454Z,97209.81
2024-02-22T03:31:23.916Z,97202.94
2024-02-22T03:33:54.094Z,97207.56
2024-02-22T03:36:23.428Z,97204.38
2024-02-22T03:38:54.500Z,97204.38
2024-02-22T03:41:28.341Z,97197.44
2024-02-22T03:43:55.391Z,97193.41
2024-02-22T03:46:22.917Z,97191.50
2024-02-22T03:48:49.943Z,97186.25
2024-02-22T03:51:17.426Z,97188.53
2024-02-22T03:53:46.103Z,97174.47
2024-02-22T03:56:13.143Z,97181.38
2024-02-22T03:58:40.880Z,97188.03
2024-02-22T04:01:07.819Z,97173.88
2024-02-22T04:03:35.401Z,97165.28
2024-02-22T04:06:02.877Z,97167.44
2024-02-22T04:08:30.069Z,97160.41
2024-02-22T04:10:56.859Z,97149.09
2024-02-22T04:13:23.623Z,97149.59
2024-02-22T04:15:50.753Z,97151.50
2024-02-22T04:18:17.838Z,97142.91
2024-02-22T04:20:44.653Z,97146.81
2024-02-22T04:23:11.544Z,97141.94
2024-02-22T04:25:42.513Z,97131.94
2024-02-22T04:28:12.177Z,97115.41
2024-02-22T04:30:39.562Z,97124.91
2024-02-22T04:33:06.396Z,97114.91
2024-02-22T04:35:33.313Z,97110.28
2024-02-22T04:38:00.194Z,97115.72
2024-02-22T04:40:27.029Z,97105.59
2024-02-22T04:42:54.795Z,97104.19
2024-02-22T04:45:21.694Z,97107.91
2024-02-22T04:47:54.246Z,97100.88
2024-02-22T04:50:21.292Z,97088.59
2024-02-22T04:52:48.145Z,97092.63
2024-02-22T04:55:14.943Z,97094.91
2024-02-22T04:57:41.831Z,97090.16
2024-02-22T05:00:09.852Z,97077.88
2024-02-22T05:02:36.772Z,97072.63
2024-02-22T05:05:05.064Z,97075.25
2024-02-22T05:07:32.050Z,97066.44
2024-02-22T05:09:58.873Z,97063.31
2024-02-22T05:12:25.676Z,97061.34
2024-02-22T05:14:55.411Z,97063.69
2024-02-22T05:17:22.751Z,97055.25
2024-02-22T05:19:49.870Z,97054.28
2024-02-22T05:22:16.605Z,97046.41
2024-02-22T05:24:43.827Z,97040.94
2024-02-22T05:27:11.616Z,97041.28
2024-02-22T05:29:39.256Z,97039.00
2024-02-22T05:32:06.582Z,97026.53
2024-02-22T05:34:33.523Z,97031.16
2024-02-22T05:37:00.319Z,97021.53
2024-02-22T05:39:33.167Z,97018.66
2024-02-22T05:42:00.934Z,97025.31
2024-02-22T05:44:27.638Z,97016.28
2024-02-22T05:46:57.984Z,97003.63
2024-02-22T05:49:24.963Z,97001.25
2024-02-22T05:51:56.222Z,97007.31
2024-02-22T05:54:29.160Z,96995.41
2024-02-22T05:56:55.901Z,96984.25
2024-02-22T05:59:22.785Z,96992.69
2024-02-22T06:01:51.113Z,96998.75
2024-02-22T06:04:18.236Z,96980.84
2024-02-22T06:06:45.142Z,96976.97
2024-02-22T06:09:11.915Z,96965.50
2024-02-22T06:11:38.933Z,96968.84
2024-02-22T06:14:06.060Z,96984.41
2024-02-22T06:16:33.393Z,96978.03
2024-02-22T06:19:00.409Z,96966.69
2024-02-22T06:21:27.178Z,96975.25
2024-02-22T06:23:57.094Z,96973.81
2024-02-22T06:26:23.890Z,96972.97
2024-02-22T06:28:50.710Z,96971.31
2024-02-22T06:31:17.463Z,96960.28
2024-02-22T06:33:45.013Z,96956.44
2024-02-22T06:36:11.925Z,96955.47
2024-02-22T06:38:41.020Z,96943.66
2024-02-22T06:41:08.134Z,96940.56
2024-02-22T06:43:35.000Z,96939.31
2024-02-22T06:46:01.737Z,96933.81
2024-02-22T06:48:28.654Z,96926.63
2024-02-22T06:50:56.171Z,96939.75
2024-02-22T06:53:23.090Z,96916.59
2024-02-22T06:55:50.093Z,96906.97
2024-02-22T06:58:18.292Z,96904.13
2024-02-22T07:00:45.075Z,96908.28
2024-02-22T07:03:12.508Z,96898.50
2024-02-22T07:05:39.406Z,96907.78
2024-02-22T07:08:06.437Z,96902.19
2024-02-22T07:10:33.284Z,96899.91
2024-02-22T07:13:00.093Z,96894.81
2024-02-22T07:15:27.782Z,96888.03
2024-02-22T07:17:54.686Z,96898.78
2024-02-22T07:20:21.581Z,96887.97
2024-02-22T07:22:49.779Z,96891.97
2024-02-22T07:25:22.239Z,96889.94
2024-02-22T07:27:52.069Z,96886.63
2024-02-22T07:30:22.124Z,96886.72
2024-02-22T07:32:49.653Z,96883.69
2024-02-22T07:35:20.718Z,96881.06
2024-02-22T07:37:47.503Z,96881.75
2024-02-22T07:40:14.380Z,96879.47
2024-02-22T07:42:42.101Z,96885.34
2024-02-22T07:45:09.245Z,96874.16
2024-02-22T07:47:35.966Z,96880.53
2024-02-22T07:50:06.544Z,96874.09
2024-02-22T07:52:33.536Z,96875.88
2024-02-22T07:55:00.318Z,96875.25
2024-02-22T07:57:27.122Z,96873.69
2024-02-22T07:59:57.330Z,96868.97
2024-02-22T08:02:24.793Z,96867.81
2024-02-22T08:04:54.678Z,96862.72
2024-02-22T08:07:21.584Z,96862.13
2024-02-22T08:09:49.340Z,96857.41
2024-02-22T08:12:16.161Z,96855.22
2024-02-22T08:14:45.494Z,96860.59
2024-02-22T08:17:18.001Z,96849.09
2024-02-22T08:19:45.105Z,96846.03
2024-02-22T08:22:15.110Z,96837.91
2024-02-22T08:24:42.029Z,96835.28
2024-02-22T08:27:08.928Z,96828.94
2024-02-22T08:29:35.689Z,96822.09
2024-02-22T08:32:04.398Z,96817.13
2024-02-22T08:34:31.301Z,96814.94
2024-02-22T08:36:58.162Z,96812.16
2024-02-22T08:39:25.362Z,96805.25
2024-02-22T08:41:52.198Z,96812.53
2024-02-22T08:44:19.049Z,96794.91
2024-02-22T08:46:45.882Z,96797.69
2024-02-22T08:49:15.382Z,96795.19
2024-02-22T08:51:42.269Z,96777.63
2024-02-22T08:54:10.361Z,96775.75
2024-02-22T08:56:37.220Z,96770.88
2024-02-22T08:59:07.261Z,96776.31
2024-02-22T09:01:35.757Z,96782.69
2024-02-22T09:04:05.621Z,96767.38
2024-02-22T09:06:33.306Z,96761.84
2024-02-22T09:09:09.250Z,96760.34
2024-02-22T09:11:36.731Z,96762.25
2024-02-22T09:14:03.590Z,96756.34
2024-02-22T09:16:31.370Z,96742.38
2024-02-22T09:18:58.202Z,96742.53
2024-02-22T09:21:25.200Z,96727.88
2024-02-22T09:23:53.622Z,96729.00
2024-02-22T09:26:20.527Z,96726.13
2024-02-22T09:28:47.535Z,96729.16
2024-02-22T09:31:23.889Z,96714.78
2024-02-22T09:33:51.939Z,96716.69
2024-02-22T09:36:18.701Z,96702.59
2024-02-22T09:38:45.520Z,96695.44
2024-02-22T09:41:12.695Z,96705.53
2024-02-22T09:43:39.645Z,96692.03
2024-02-22T09:46:08.366Z,96691.34
2024-02-22T09:48:35.286Z,96684.69
2024-02-22T09:51:06.936Z,96691.19
2024-02-22T09:53:33.883Z,96685.41
2024-02-22T09:56:00.886Z,96677.53
2024-02-22T09:58:27.585Z,96673.81
2024-02-22T10:00:54.485Z,96674.66
2024-02-22T10:03:38.681Z,96666.50
2024-02-22T10:06:16.122Z,96661.81
2024-02-22T10:08:46.651Z,96663.59
2024-02-22T10:11:14.003Z,96652.28
2024-02-22T10:13:42.596Z,96650.47
2024-02-22T10:16:16.515Z,96654.06
2024-02-22T10:18:43.506Z,96659.59
2024-02-22T10:21:15.463Z,96650.88
2024-02-22T10:23:42.496Z,96629.88
2024-02-22T10:26:13.037Z,96628.66
2024-02-22T10:28:45.591Z,96631.69
2024-02-22T10:31:15.789Z,96613.19
2024-02-22T10:33:43.266Z,96620.63
2024-02-22T10:36:16.864Z,96609.16
2024-02-22T10:38:47.643Z,96594.38
2024-02-22T10:41:16.726Z,96598.41
2024-02-22T10:43:44.726Z,96580.16
2024-02-22T10:46:13.320Z,96596.44
2024-02-22T10:48:51.584Z,96582.47
2024-02-22T10:51:24.399Z,96569.22
2024-02-22T10:53:56.849Z,96564.78
2024-02-22T10:56:27.048Z,96581.66
2024-02-22T10:59:00.526Z,96569.50
2024-02-22T11:01:29.873Z,96553.19
2024-02-22T11:03:59.830Z,96538.00
2024-02-22T11:06:40.775Z,96526.53
2024-02-22T11:09:25.708Z,96534.13
2024-02-22T11:11:54.304Z,96522.53
2024-02-22T11:14:35.821Z,96506.06
2024-02-22T11:17:07.439Z,96515.75
2024-02-22T11:19:38.208Z,96501.25
2024-02-22T11:22:22.058Z,96504.31
2024-02-22T11:24:51.318Z,96484.56
2024-02-22T11:27:21.390Z,96491.84
2024-02-22T11:29:48.293Z,96483.84
2024-02-22T11:32:16.220Z,96489.22
2024-02-22T11:34:44.747Z,96490.22
2024-02-22T11:37:15.842Z,96470.28
2024-02-22T11:39:42.589Z,96467.94
2024-02-22T11:42:16.057Z,96471.97
2024-02-22T11:44:47.684Z,96472.22
2024-02-22T11:47:20.767Z,96471.78
2024-02-22T11:49:47.724Z,96465.59
2024-02-22T11:52:16.495Z,96469.88
2024-02-22T11:54:50.830Z,96468.53
2024-02-22T11:57:18.904Z,96452.78
2024-02-22T11:59:46.238Z,96451.94
2024-02-22T12:02:14.537Z,96445.19
2024-02-22T12:04:42.856Z,96446.97
2024-02-22T12:07:10.866Z,96442.09
2024-02-22T12:09:38.010Z,96441.13
2024-02-22T12:12:06.219Z,96422.53
2024-02-22T12:14:33.156Z,96414.78
2024-02-22T12:17:01.429Z,96406.91
2024-02-22T12:19:31.599Z,96403.75
2024-02-22T12:22:06.194Z,96399.03
2024-02-22T12:24:36.362Z,96376.81
2024-02-22T12:27:04.862Z,96375.03
2024-02-22T12:29:31.984Z,96355.16
2024-02-22T12:32:06.536Z,96343.78
2024-02-22T12:34:40.073Z,96334.09
2024-02-22T12:37:13.755Z,96333.22
2024-02-22T12:39:41.544Z,96325.25
2024-02-22T12:42:08.768Z,96307.31
2024-02-22T12:44:36.804Z,96306.06
2024-02-22T12:47:04.672Z,96305.41
2024-02-22T12:49:34.381Z,96304.19
2024-02-22T12:52:07.094Z,96283.72
2024-02-22T12:54:34.979Z,96278.91
2024-02-22T12:57:02.453Z,96275.19
2024-02-22T12:59:29.415Z,96266.38
2024-02-22T13:01:58.693Z,96243.81
2024-02-22T13:04:26.031Z,96249.47
2024-02-22T13:06:57.182Z,96236.09
2024-02-22T13:09:24.578Z,96232.19
2024-02-22T13:11:51.568Z,96217.41
2024-02-22T13:14:21.157Z,96209.59
2024-02-22T13:16:49.111Z,96206.91
2024-02-22T13:19:18.240Z,96212.53
2024-02-22T13:21:48.358Z,96189.75
2024-02-22T13:24:15.258Z,96198.06
2024-02-22T13:26:43.789Z,96194.78
2024-02-22T13:29:15.516Z,96193.94
2024-02-22T13:31:44.029Z,96179.25
2024-02-22T13:34:17.217Z,96183.50
2024-02-22T13:36:47.970Z,96163.94
2024-02-22T13:39:14.825Z,96174.06
2024-02-22T13:41:42.930Z,96161.63
2024-02-22T13:44:19.919Z,96149.75
2024-02-22T13:46:54.761Z,96146.69
2024-02-22T13:49:24.513Z,96151.03
2024-02-22T13:52:07.362Z,96130.91
2024-02-22T13:54:40.857Z,96128.47
2024-02-22T13:57:07.934Z,96119.91
2024-02-22T13:59:34.828Z,96127.41
2024-02-22T14:02:05.091Z,96109.03
2024-02-22T14:07:21.242Z,96095.31
2024-02-22T14:10:02.339Z,96080.69
2024-02-22T14:12:34.517Z,96084.66
2024-02-22T14:16:12.482Z,96076.31
2024-02-22T14:18:42.530Z,96073.63
2024-02-22T14:21:14.868Z,96061.03
2024-02-22T14:23:42.386Z,96047.69
2024-02-22T14:26:09.181Z,96052.63
2024-02-22T14:28:36.753Z,96039.22
2024-02-22T14:31:04.228Z,96040.03
2024-02-22T14:33:31.886Z,96033.47
2024-02-22T14:36:01.173Z,96024.16
2024-02-22T14:38:41.631Z,96021.13
2024-02-22T14:41:12.073Z,96016.03
2024-02-22T14:43:40.771Z,96006.72
2024-02-22T14:46:12.706Z,96010.69
2024-02-22T14:48:44.480Z,96011.03
2024-02-22T14:51:12.184Z,96010.22
2024-02-22T14:53:39.320Z,96008.06
2024-02-22T14:56:10.588Z,96009.91
2024-02-22T14:58:41.986Z,96007.28
2024-02-22T15:01:08.758Z,96012.06
2024-02-22T15:03:36.146Z,95999.41
2024-02-22T15:06:09.743Z,95982.31
2024-02-22T15:08:42.212Z,95989.41
2024-02-22T15:11:12.199Z,95981.38
2024-02-22T15:13:40.986Z,95984.16
2024-02-22T15:16:08.543Z,95979.91
2024-02-22T15:18:42.072Z,95962.78
2024-02-22T15:21:08.893Z,95951.44
2024-02-22T15:23:38.604Z,95962.66
2024-02-22T15:26:06.454Z,95943.59
2024-02-22T15:28:36.539Z,95939.47
2024-02-22T15:31:03.570Z,95942.16
2024-02-22T15:33:33.522Z,95944.72
2024-02-22T15:36:00.673Z,95925.84
2024-02-22T15:38:30.638Z,95934.09
2024-02-22T15:41:04.587Z,95929.31
2024-02-22T15:43:31.832Z,95932.63
2024-02-22T15:46:01.638Z,95924.25
2024-02-22T15:48:28.451Z,95921.56
2024-02-22T15:51:01.638Z,95925.06
2024-02-22T15:53:28.523Z,95920.78
2024-02-22T15:55:57.302Z,95929.50
2024-02-22T15:58:28.698Z,95874.38
2024-02-22T16:00:56.979Z,95878.78
2024-02-22T16:03:23.738Z,95876.66
2024-02-22T16:05:51.961Z,95904.53
2024-02-22T16:08:19.456Z,95900.94
2024-02-22T16:10:46.308Z,95894.84
2024-02-22T16:13:17.239Z,95888.63
2024-02-22T16:15:50.424Z,95887.03
2024-02-22T16:18:25.887Z,95884.03
2024-02-22T16:20:56.602Z,95871.25
2024-02-22T16:23:29.971Z,95863.38
2024-02-22T16:25:57.553Z,95857.63
2024-02-22T16:28:30.116Z,95847.63
2024-02-22T16:31:06.811Z,95852.69
2024-02-22T16:33:36.817Z,95829.56
2024-02-22T16:36:10.543Z,95850.75
2024-02-22T16:38:46.424Z,95876.81
2024-02-22T16:41:28.882Z,95858.00
2024-02-22T16:43:56.290Z,95859.44
2024-02-22T16:46:31.498Z,95856.31
2024-02-22T16:49:10.365Z,95873.75
2024-02-22T16:51:46.496Z,95842.53
2024-02-22T16:54:16.129Z,95846.31
2024-02-22T16:57:12.468Z,95834.19
2024-02-22T16:59:42.219Z,95857.16
2024-02-22T17:02:09.146Z,95847.78
2024-02-22T17:04:47.842Z,95857.94
2024-02-22T17:07:23.856Z,95863.81
2024-02-22T17:09:56.747Z,95871.56
2024-02-22T17:12:30.194Z,95848.59
2024-02-22T17:14:58.572Z,95868.44
2024-02-22T17:17:25.737Z,95864.66
2024-02-22T17:19:52.607Z,95865.16
2024-02-22T17:22:24.832Z,95872.06
2024-02-22T17:24:55.950Z,95865.84
2024-02-22T17:27:23.501Z,95865.34
2024-02-22T17:30:08.908Z,95864.19
2024-02-22T17:32:36.882Z,95871.94
2024-02-22T17:35:04.155Z,95860.25
2024-02-22T17:37:33.411Z,95877.84
2024-02-22T17:40:02.003Z,95865.03
2024-02-22T17:42:38.018Z,95868.00
2024-02-22T17:45:08.024Z,95864.56
2024-02-22T17:47:34.793Z,95878.00
2024-02-22T17:50:03.009Z,95875.88
2024-02-22T17:52:30.012Z,95874.03
2024-02-22T17:54:56.869Z,95888.16
2024-02-22T17:57:26.706Z,95898.50
2024-02-22T17:59:54.339Z,95901.13
2024-02-22T18:02:23.242Z,95887.81
2024-02-22T18:04:57.295Z,95838.72
2024-02-22T18:07:29.156Z,95818.22
2024-02-22T18:09:59.220Z,95815.56
2024-02-22T18:12:42.736Z,95806.25
2024-02-22T18:15:23.243Z,95786.38
2024-02-22T18:17:51.642Z,95806.56
2024-02-22T18:20:19.220Z,95814.31
2024-02-22T18:22:53.792Z,95820.69
2024-02-22T18:25:26.942Z,95823.97
2024-02-22T18:27:54.387Z,95833.94
2024-02-22T18:30:24.172Z,95817.06
2024-02-22T18:32:56.453Z,95837.75
2024-02-22T18:35:43.702Z,95875.97
2024-02-22T18:38:13.180Z,95851.09
2024-02-22T18:40:39.987Z,95840.75
2024-02-22T18:43:07.760Z,95852.38
2024-02-22T18:45:34.755Z,95835.81
2024-02-22T18:48:13.746Z,95835.38
2024-02-22T18:50:52.845Z,95852.22
2024-02-22T18:53:19.768Z,95853.41
2024-02-22T18:55:47.529Z,95840.91
2024-02-22T18:58:14.474Z,95839.75
2024-02-22T19:00:41.377Z,95839.59
2024-02-22T19:03:13.275Z,95839.59
2024-02-22T19:05:56.218Z,95839.13
2024-02-22T19:08:25.883Z,95829.44
2024-02-22T19:10:58.657Z,95776.41
2024-02-22T19:13:28.086Z,95804.47
2024-02-22T19:16:00.649Z,95847.50
2024-02-22T19:18:30.145Z,95850.59
2024-02-22T19:21:02.610Z,95845.28
2024-02-22T19:23:29.730Z,95891.56
2024-02-22T19:25:56.768Z,95933.38
2024-02-22T19:28:26.664Z,95941.00
2024-02-22T19:30:56.464Z,95934.25
2024-02-22T19:33:23.288Z,95945.34
2024-02-22T19:35:50.727Z,95955.34
2024-02-22T19:38:21.487Z,95955.00
2024-02-22T19:40:52.480Z,95949.34
2024-02-22T19:43:22.560Z,95946.00
2024-02-22T19:45:49.474Z,95965.25
2024-02-22T19:48:21.777Z,95972.56
2024-02-22T19:50:49.979Z,95971.41
2024-02-22T19:53:18.627Z,95974.22
2024-02-22T19:55:48.718Z,95990.34
2024-02-22T19:58:18.365Z,95991.31
2024-02-22T20:00:50.490Z,95993.31
2024-02-22T20:03:17.344Z,95994.28
2024-02-22T20:05:46.909Z,95995.13
2024-02-22T20:08:19.278Z,96005.34
2024-02-22T20:11:05.221Z,96001.75
2024-02-22T20:13:34.582Z,96034.22
2024-02-22T20:16:01.510Z,96022.69
2024-02-22T20:18:34.557Z,96039.06
2024-02-22T20:21:08.470Z,96047.31
2024-02-22T20:23:45.567Z,96050.38
2024-02-22T20:26:15.459Z,96074.44
2024-02-22T20:28:45.575Z,96082.28
2024-02-22T20:31:20.107Z,96079.69
2024-02-22T20:33:47.147Z,96095.63
2024-02-22T20:36:23.994Z,96094.41
2024-02-22T20:38:55.425Z,96120.00
2024-02-22T20:41:28.318Z,96139.13
2024-02-22T20:43:57.719Z,96139.13
2024-02-22T20:46:24.564Z,96176.69
2024-02-22T20:48:58.237Z,96169.94
2024-02-22T20:51:30.704Z,96179.00
2024-02-22T20:53:57.830Z,96181.22
2024-02-22T20:56:24.733Z,96184.50
2024-02-22T20:58:51.677Z,96186.72
2024-02-22T21:01:19.059Z,96181.34
2024-02-22T21:03:45.847Z,96183.81
2024-02-22T21:06:23.437Z,96198.25
2024-02-22T21:08:53.451Z,96200.25
2024-02-22T21:11:20.471Z,96208.78
2024-02-22T21:13:47.381Z,96228.97
2024-02-22T21:16:14.439Z,96244.25
2024-02-22T21:18:42.601Z,96256.31
2024-02-22T21:21:12.839Z,96263.59
2024-02-22T21:23:42.165Z,96269.38
2024-02-22T21:26:08.933Z,96256.53
2024-02-22T21:28:35.701Z,96265.88
2024-02-22T21:31:02.735Z,96277.66
2024-02-22T21:33:29.991Z,96277.41
2024-02-22T21:35:56.834Z,96282.31
2024-02-22T21:38:23.912Z,96272.69
2024-02-22T21:40:50.980Z,96281.81
2024-02-22T21:43:17.764Z,96272.69
2024-02-22T21:45:47.536Z,96281.09
2024-02-22T21:48:14.292Z,96295.25
2024-02-22T21:50:41.899Z,96301.41
2024-02-22T21:53:14.238Z,96310.84
2024-02-22T21:55:44.291Z,96306.09
2024-02-22T21:58:10.986Z,96296.59
2024-02-22T22:00:39.041Z,96313.47
2024-02-22T22:03:07.121Z,96309.09
2024-02-22T22:05:36.138Z,96325.72
2024-02-22T22:08:04.806Z,96337.44
2024-02-22T22:10:31.602Z,96313.72
2024-02-22T22:12:58.380Z,96324.53
2024-02-22T22:15:25.434Z,96351.50
2024-02-22T22:17:52.247Z,96345.69
2024-02-22T22:20:19.077Z,96341.56
2024-02-22T22:22:45.867Z,96361.72
2024-02-22T22:25:15.699Z,96361.03
2024-02-22T22:27:46.385Z,96366.50
2024-02-22T22:30:16.083Z,96350.25
2024-02-22T22:32:45.938Z,96364.25
2024-02-22T22:35:15.539Z,96371.97
2024-02-22T22:37:45.077Z,96365.00
2024-02-22T22:40:23.099Z,96362.41
2024-02-22T22:42:49.767Z,96369.53
2024-02-22T22:45:16.655Z,96366.34
2024-02-22T22:47:43.371Z,96374.66
2024-02-22T22:50:13.659Z,96365.03
2024-02-22T22:52:40.722Z,96373.00
2024-02-22T22:55:10.463Z,96373.81
2024-02-22T22:57:39.756Z,96372.41
2024-02-22T23:00:14.488Z,96381.19
2024-02-22T23:02:41.184Z,96374.78
2024-02-22T23:05:08.022Z,96394.84
2024-02-22T23:07:35.123Z,96390.69
2024-02-22T23:10:01.854Z,96413.47
2024-02-22T23:12:28.556Z,96408.50
2024-02-22T23:14:57.444Z,96421.41
2024-02-22T23:17:24.232Z,96415.97
2024-02-22T23:19:51.224Z,96427.94
2024-02-22T23:22:17.919Z,96431.63
2024-02-22T23:24:44.681Z,96441.69
2024-02-22T23:27:11.782Z,96423.41
2024-02-22T23:29:38.436Z,96413.56
2024-02-22T23:32:05.941Z,96421.91
2024-02-22T23:34:32.728Z,96421.66
2024-02-22T23:37:02.130Z,96437.66
2024-02-22T23:39:28.900Z,96473.47
2024-02-22T23:41:57.603Z,96536.50
2024-02-22T23:44:25.531Z,96510.16
2024-02-22T23:46:52.445Z,96513.31
2024-02-22T23:49:19.574Z,96519.63
2024-02-22T23:51:46.348Z,96525.41
2024-02-22T23:54:17.250Z,96546.72
2024-02-22T23:56:49.225Z,96530.06
2024-02-22T23:59:19.067Z,96543.47
